sensor_id;sensor_type;location;lat;lon;timestamp;P1;durP1;ratioP1;P2;durP2;ratioP2
6523;SDS011;3295;38.928;-77.052;2023-04-24T00:00:22;2.23;;;1.90;;
6523;SDS011;3295;38.928;-77.052;2023-04-24T00:02:49;2.90;;;1.90;;
6523;SDS011;3295;38.928;-77.052;2023-04-24T00:05:16;3.60;;;2.30;;
6523;SDS011;3295;38.928;-77.052;2023-04-24T00:07:44;3.87;;;2.40;;
6523;SDS011;3295;38.928;-77.052;2023-04-24T00:10:11;2.80;;;2.10;;
6523;SDS011;3295;38.928;-77.052;2023-04-24T00:12:38;5.73;;;2.17;;
6523;SDS011;3295;38.928;-77.052;2023-04-24T00:15:08;2.37;;;1.90;;
6523;SDS011;3295;38.928;-77.052;2023-04-24T00:17:35;2.80;;;2.00;;
6523;SDS011;3295;38.928;-77.052;2023-04-24T00:20:03;2.80;;;1.80;;
6523;SDS011;3295;38.928;-77.052;2023-04-24T00:22:32;2.50;;;1.87;;
6523;SDS011;3295;38.928;-77.052;2023-04-24T00:24:59;3.20;;;2.00;;
6523;SDS011;3295;38.928;-77.052;2023-04-24T00:27:26;2.27;;;2.00;;
6523;SDS011;3295;38.928;-77.052;2023-04-24T00:29:53;1.90;;;1.70;;
6523;SDS011;3295;38.928;-77.052;2023-04-24T00:32:22;2.50;;;1.70;;
6523;SDS011;3295;38.928;-77.052;2023-04-24T00:34:49;2.73;;;1.80;;
6523;SDS011;3295;38.928;-77.052;2023-04-24T00:37:16;2.00;;;1.60;;
6523;SDS011;3295;38.928;-77.052;2023-04-24T00:39:44;1.57;;;1.47;;
6523;SDS011;3295;38.928;-77.052;2023-04-24T00:42:11;1.70;;;1.50;;
6523;SDS011;3295;38.928;-77.052;2023-04-24T00:44:38;3.17;;;1.47;;
6523;SDS011;3295;38.928;-77.052;2023-04-24T00:47:06;1.50;;;1.40;;
6523;SDS011;3295;38.928;-77.052;2023-04-24T00:49:35;1.40;;;1.30;;
6523;SDS011;3295;38.928;-77.052;2023-04-24T00:52:02;1.83;;;1.57;;
6523;SDS011;3295;38.928;-77.052;2023-04-24T00:54:32;1.50;;;1.40;;
6523;SDS011;3295;38.928;-77.052;2023-04-24T00:57:00;2.60;;;1.50;;
6523;SDS011;3295;38.928;-77.052;2023-04-24T00:59:27;1.53;;;1.43;;
6523;SDS011;3295;38.928;-77.052;2023-04-24T01:01:54;1.60;;;1.47;;
6523;SDS011;3295;38.928;-77.052;2023-04-24T01:04:22;1.43;;;1.23;;
6523;SDS011;3295;38.928;-77.052;2023-04-24T01:06:50;1.50;;;1.40;;
6523;SDS011;3295;38.928;-77.052;2023-04-24T01:09:18;1.60;;;1.50;;
6523;SDS011;3295;38.928;-77.052;2023-04-24T01:11:45;1.70;;;1.50;;
6523;SDS011;3295;38.928;-77.052;2023-04-24T01:14:13;2.07;;;1.40;;
6523;SDS011;3295;38.928;-77.052;2023-04-24T01:16:40;1.83;;;1.40;;
6523;SDS011;3295;38.928;-77.052;2023-04-24T01:19:07;1.90;;;1.50;;
6523;SDS011;3295;38.928;-77.052;2023-04-24T01:21:36;1.93;;;1.50;;
6523;SDS011;3295;38.928;-77.052;2023-04-24T01:24:06;2.23;;;1.70;;
6523;SDS011;3295;38.928;-77.052;2023-04-24T01:26:33;1.70;;;1.60;;
6523;SDS011;3295;38.928;-77.052;2023-04-24T01:29:00;2.60;;;1.67;;
6523;SDS011;3295;38.928;-77.052;2023-04-24T01:31:28;1.80;;;1.57;;
6523;SDS011;3295;38.928;-77.052;2023-04-24T01:33:55;1.70;;;1.30;;
6523;SDS011;3295;38.928;-77.052;2023-04-24T01:36:22;1.70;;;1.47;;
6523;SDS011;3295;38.928;-77.052;2023-04-24T01:38:51;1.57;;;1.30;;
6523;SDS011;3295;38.928;-77.052;2023-04-24T01:41:20;1.90;;;1.60;;
6523;SDS011;3295;38.928;-77.052;2023-04-24T01:43:47;1.70;;;1.40;;
6523;SDS011;3295;38.928;-77.052;2023-04-24T01:46:15;2.27;;;1.60;;
6523;SDS011;3295;38.928;-77.052;2023-04-24T01:48:42;1.50;;;1.40;;
6523;SDS011;3295;38.928;-77.052;2023-04-24T01:51:09;2.03;;;1.40;;
6523;SDS011;3295;38.928;-77.052;2023-04-24T01:53:36;2.83;;;1.47;;
6523;SDS011;3295;38.928;-77.052;2023-04-24T01:56:04;1.60;;;1.50;;
6523;SDS011;3295;38.928;-77.052;2023-04-24T01:58:33;1.40;;;1.30;;
6523;SDS011;3295;38.928;-77.052;2023-04-24T02:01:00;2.20;;;1.50;;
6523;SDS011;3295;38.928;-77.052;2023-04-24T02:03:27;1.60;;;1.40;;
6523;SDS011;3295;38.928;-77.052;2023-04-24T02:05:55;2.13;;;1.50;;
6523;SDS011;3295;38.928;-77.052;2023-04-24T02:08:22;1.90;;;1.50;;
6523;SDS011;3295;38.928;-77.052;2023-04-24T02:10:49;2.10;;;1.30;;
6523;SDS011;3295;38.928;-77.052;2023-04-24T02:13:16;1.53;;;1.40;;
6523;SDS011;3295;38.928;-77.052;2023-04-24T02:15:45;1.60;;;1.50;;
6523;SDS011;3295;38.928;-77.052;2023-04-24T02:18:13;1.57;;;1.40;;
6523;SDS011;3295;38.928;-77.052;2023-04-24T02:20:40;1.70;;;1.50;;
6523;SDS011;3295;38.928;-77.052;2023-04-24T02:23:08;1.97;;;1.50;;
6523;SDS011;3295;38.928;-77.052;2023-04-24T02:25:35;1.90;;;1.50;;
6523;SDS011;3295;38.928;-77.052;2023-04-24T02:28:02;1.50;;;1.40;;
6523;SDS011;3295;38.928;-77.052;2023-04-24T02:30:29;3.37;;;1.40;;
6523;SDS011;3295;38.928;-77.052;2023-04-24T02:32:58;1.20;;;1.10;;
6523;SDS011;3295;38.928;-77.052;2023-04-24T02:35:25;2.20;;;1.43;;
6523;SDS011;3295;38.928;-77.052;2023-04-24T02:37:52;1.90;;;1.43;;
6523;SDS011;3295;38.928;-77.052;2023-04-24T02:40:19;2.23;;;1.40;;
6523;SDS011;3295;38.928;-77.052;2023-04-24T02:42:47;1.47;;;1.37;;
6523;SDS011;3295;38.928;-77.052;2023-04-24T02:45:14;2.43;;;1.40;;
6523;SDS011;3295;38.928;-77.052;2023-04-24T02:47:41;1.50;;;1.40;;
6523;SDS011;3295;38.928;-77.052;2023-04-24T02:50:10;1.90;;;1.50;;
6523;SDS011;3295;38.928;-77.052;2023-04-24T02:52:37;1.63;;;1.50;;
6523;SDS011;3295;38.928;-77.052;2023-04-24T02:55:05;1.93;;;1.40;;
6523;SDS011;3295;38.928;-77.052;2023-04-24T02:57:33;1.97;;;1.30;;
6523;SDS011;3295;38.928;-77.052;2023-04-24T03:00:00;2.10;;;1.40;;
6523;SDS011;3295;38.928;-77.052;2023-04-24T03:02:28;1.77;;;1.37;;
6523;SDS011;3295;38.928;-77.052;2023-04-24T03:04:56;1.73;;;1.47;;
6523;SDS011;3295;38.928;-77.052;2023-04-24T03:07:24;1.90;;;1.40;;
6523;SDS011;3295;38.928;-77.052;2023-04-24T03:09:52;1.40;;;1.30;;
6523;SDS011;3295;38.928;-77.052;2023-04-24T03:12:19;1.33;;;1.20;;
6523;SDS011;3295;38.928;-77.052;2023-04-24T03:14:49;1.90;;;1.50;;
6523;SDS011;3295;38.928;-77.052;2023-04-24T03:17:16;1.70;;;1.50;;
6523;SDS011;3295;38.928;-77.052;2023-04-24T03:19:43;1.50;;;1.40;;
6523;SDS011;3295;38.928;-77.052;2023-04-24T03:22:10;1.93;;;1.50;;
6523;SDS011;3295;38.928;-77.052;2023-04-24T03:24:39;1.43;;;1.33;;
6523;SDS011;3295;38.928;-77.052;2023-04-24T03:27:06;1.60;;;1.40;;
6523;SDS011;3295;38.928;-77.052;2023-04-24T03:29:34;1.40;;;1.30;;
6523;SDS011;3295;38.928;-77.052;2023-04-24T03:32:01;1.40;;;1.30;;
6523;SDS011;3295;38.928;-77.052;2023-04-24T03:34:28;1.90;;;1.50;;
6523;SDS011;3295;38.928;-77.052;2023-04-24T03:36:55;1.30;;;1.20;;
6523;SDS011;3295;38.928;-77.052;2023-04-24T03:39:23;2.30;;;1.40;;
6523;SDS011;3295;38.928;-77.052;2023-04-24T03:41:52;1.80;;;1.60;;
6523;SDS011;3295;38.928;-77.052;2023-04-24T03:44:19;1.90;;;1.40;;
6523;SDS011;3295;38.928;-77.052;2023-04-24T03:46:46;2.53;;;1.40;;
6523;SDS011;3295;38.928;-77.052;2023-04-24T03:49:13;1.47;;;1.30;;
6523;SDS011;3295;38.928;-77.052;2023-04-24T03:51:40;1.73;;;1.37;;
6523;SDS011;3295;38.928;-77.052;2023-04-24T03:54:08;3.53;;;1.60;;
6523;SDS011;3295;38.928;-77.052;2023-04-24T03:56:35;1.73;;;1.40;;
6523;SDS011;3295;38.928;-77.052;2023-04-24T03:59:03;2.17;;;1.47;;
6523;SDS011;3295;38.928;-77.052;2023-04-24T04:01:31;1.50;;;1.40;;
6523;SDS011;3295;38.928;-77.052;2023-04-24T04:04:01;1.80;;;1.40;;
6523;SDS011;3295;38.928;-77.052;2023-04-24T04:06:29;1.53;;;1.13;;
6523;SDS011;3295;38.928;-77.052;2023-04-24T04:08:57;1.50;;;1.40;;
6523;SDS011;3295;38.928;-77.052;2023-04-24T04:11:25;1.67;;;1.50;;
6523;SDS011;3295;38.928;-77.052;2023-04-24T04:13:52;1.30;;;1.20;;
6523;SDS011;3295;38.928;-77.052;2023-04-24T04:16:21;2.27;;;1.50;;
6523;SDS011;3295;38.928;-77.052;2023-04-24T04:18:48;1.70;;;1.33;;
6523;SDS011;3295;38.928;-77.052;2023-04-24T04:21:15;1.53;;;1.33;;
6523;SDS011;3295;38.928;-77.052;2023-04-24T04:23:42;2.23;;;1.20;;
6523;SDS011;3295;38.928;-77.052;2023-04-24T04:26:10;1.60;;;1.30;;
6523;SDS011;3295;38.928;-77.052;2023-04-24T04:28:38;1.47;;;1.17;;
6523;SDS011;3295;38.928;-77.052;2023-04-24T04:31:06;1.60;;;1.17;;
6523;SDS011;3295;38.928;-77.052;2023-04-24T04:33:36;1.60;;;1.17;;
6523;SDS011;3295;38.928;-77.052;2023-04-24T04:36:04;3.87;;;1.30;;
6523;SDS011;3295;38.928;-77.052;2023-04-24T04:38:32;1.40;;;1.30;;
6523;SDS011;3295;38.928;-77.052;2023-04-24T04:41:00;1.87;;;1.30;;
6523;SDS011;3295;38.928;-77.052;2023-04-24T04:43:27;1.67;;;1.40;;
6523;SDS011;3295;38.928;-77.052;2023-04-24T04:45:57;1.70;;;1.30;;
6523;SDS011;3295;38.928;-77.052;2023-04-24T04:48:26;1.40;;;1.20;;
6523;SDS011;3295;38.928;-77.052;2023-04-24T04:50:55;1.40;;;1.30;;
6523;SDS011;3295;38.928;-77.052;2023-04-24T04:53:22;1.47;;;1.37;;
6523;SDS011;3295;38.928;-77.052;2023-04-24T04:55:49;1.27;;;1.17;;
6523;SDS011;3295;38.928;-77.052;2023-04-24T04:58:17;1.20;;;1.10;;
6523;SDS011;3295;38.928;-77.052;2023-04-24T05:00:44;1.83;;;1.50;;
6523;SDS011;3295;38.928;-77.052;2023-04-24T05:03:11;1.20;;;1.10;;
6523;SDS011;3295;38.928;-77.052;2023-04-24T05:05:38;1.57;;;1.10;;
6523;SDS011;3295;38.928;-77.052;2023-04-24T05:08:08;1.30;;;1.20;;
6523;SDS011;3295;38.928;-77.052;2023-04-24T05:10:35;1.30;;;1.20;;
6523;SDS011;3295;38.928;-77.052;2023-04-24T05:13:02;1.33;;;1.23;;
6523;SDS011;3295;38.928;-77.052;2023-04-24T05:15:30;1.80;;;1.30;;
6523;SDS011;3295;38.928;-77.052;2023-04-24T05:17:57;1.50;;;1.17;;
6523;SDS011;3295;38.928;-77.052;2023-04-24T05:20:24;1.40;;;1.30;;
6523;SDS011;3295;38.928;-77.052;2023-04-24T05:22:51;1.17;;;1.07;;
6523;SDS011;3295;38.928;-77.052;2023-04-24T05:25:20;1.20;;;1.10;;
6523;SDS011;3295;38.928;-77.052;2023-04-24T05:27:47;1.20;;;1.10;;
6523;SDS011;3295;38.928;-77.052;2023-04-24T05:30:14;1.30;;;1.20;;
6523;SDS011;3295;38.928;-77.052;2023-04-24T05:32:42;1.40;;;1.30;;
6523;SDS011;3295;38.928;-77.052;2023-04-24T05:35:09;1.70;;;1.23;;
6523;SDS011;3295;38.928;-77.052;2023-04-24T05:37:37;1.13;;;1.03;;
6523;SDS011;3295;38.928;-77.052;2023-04-24T05:40:04;1.77;;;1.40;;
6523;SDS011;3295;38.928;-77.052;2023-04-24T05:42:33;1.40;;;1.20;;
6523;SDS011;3295;38.928;-77.052;2023-04-24T05:45:00;1.40;;;1.30;;
6523;SDS011;3295;38.928;-77.052;2023-04-24T05:47:27;1.20;;;1.10;;
6523;SDS011;3295;38.928;-77.052;2023-04-24T05:49:55;1.33;;;1.20;;
6523;SDS011;3295;38.928;-77.052;2023-04-24T05:52:22;1.20;;;1.10;;
6523;SDS011;3295;38.928;-77.052;2023-04-24T05:54:50;1.37;;;1.27;;
6523;SDS011;3295;38.928;-77.052;2023-04-24T05:57:17;1.30;;;1.20;;
6523;SDS011;3295;38.928;-77.052;2023-04-24T05:59:46;1.53;;;1.40;;
6523;SDS011;3295;38.928;-77.052;2023-04-24T06:02:13;1.30;;;1.20;;
6523;SDS011;3295;38.928;-77.052;2023-04-24T06:04:41;2.67;;;1.30;;
6523;SDS011;3295;38.928;-77.052;2023-04-24T06:07:09;1.33;;;1.17;;
6523;SDS011;3295;38.928;-77.052;2023-04-24T06:09:37;2.17;;;1.17;;
6523;SDS011;3295;38.928;-77.052;2023-04-24T06:12:04;1.37;;;1.07;;
6523;SDS011;3295;38.928;-77.052;2023-04-24T06:14:33;1.40;;;1.30;;
6523;SDS011;3295;38.928;-77.052;2023-04-24T06:17:02;1.20;;;1.10;;
6523;SDS011;3295;38.928;-77.052;2023-04-24T06:19:29;1.40;;;1.20;;
6523;SDS011;3295;38.928;-77.052;2023-04-24T06:21:56;1.20;;;1.10;;
6523;SDS011;3295;38.928;-77.052;2023-04-24T06:24:26;1.57;;;1.30;;
6523;SDS011;3295;38.928;-77.052;2023-04-24T06:26:54;4.30;;;1.30;;
6523;SDS011;3295;38.928;-77.052;2023-04-24T06:29:22;1.70;;;1.27;;
6523;SDS011;3295;38.928;-77.052;2023-04-24T06:31:49;1.13;;;1.03;;
6523;SDS011;3295;38.928;-77.052;2023-04-24T06:34:18;1.33;;;1.23;;
6523;SDS011;3295;38.928;-77.052;2023-04-24T06:36:46;1.30;;;1.20;;
6523;SDS011;3295;38.928;-77.052;2023-04-24T06:39:13;1.40;;;1.30;;
6523;SDS011;3295;38.928;-77.052;2023-04-24T06:41:40;1.40;;;1.30;;
6523;SDS011;3295;38.928;-77.052;2023-04-24T06:44:07;1.30;;;1.20;;
6523;SDS011;3295;38.928;-77.052;2023-04-24T06:46:35;1.40;;;1.30;;
6523;SDS011;3295;38.928;-77.052;2023-04-24T06:49:02;1.73;;;1.30;;
6523;SDS011;3295;38.928;-77.052;2023-04-24T06:51:30;1.30;;;1.20;;
6523;SDS011;3295;38.928;-77.052;2023-04-24T06:53:58;1.43;;;1.30;;
6523;SDS011;3295;38.928;-77.052;2023-04-24T06:56:25;1.27;;;1.10;;
6523;SDS011;3295;38.928;-77.052;2023-04-24T06:58:54;1.57;;;1.30;;
6523;SDS011;3295;38.928;-77.052;2023-04-24T07:01:21;1.40;;;1.20;;
6523;SDS011;3295;38.928;-77.052;2023-04-24T07:03:48;1.43;;;1.27;;
6523;SDS011;3295;38.928;-77.052;2023-04-24T07:06:15;1.33;;;1.20;;
6523;SDS011;3295;38.928;-77.052;2023-04-24T07:08:45;1.30;;;1.20;;
6523;SDS011;3295;38.928;-77.052;2023-04-24T07:11:12;1.20;;;1.10;;
6523;SDS011;3295;38.928;-77.052;2023-04-24T07:13:40;2.57;;;1.30;;
6523;SDS011;3295;38.928;-77.052;2023-04-24T07:16:07;1.77;;;1.20;;
6523;SDS011;3295;38.928;-77.052;2023-04-24T07:18:34;1.30;;;1.20;;
6523;SDS011;3295;38.928;-77.052;2023-04-24T07:21:02;1.33;;;1.20;;
6523;SDS011;3295;38.928;-77.052;2023-04-24T07:23:30;1.23;;;1.03;;
6523;SDS011;3295;38.928;-77.052;2023-04-24T07:25:59;1.03;;;1.00;;
6523;SDS011;3295;38.928;-77.052;2023-04-24T07:28:26;1.70;;;1.30;;
6523;SDS011;3295;38.928;-77.052;2023-04-24T07:30:56;1.40;;;1.20;;
6523;SDS011;3295;38.928;-77.052;2023-04-24T07:33:25;1.30;;;1.20;;
6523;SDS011;3295;38.928;-77.052;2023-04-24T07:35:52;1.43;;;1.33;;
6523;SDS011;3295;38.928;-77.052;2023-04-24T07:38:19;1.70;;;1.40;;
6523;SDS011;3295;38.928;-77.052;2023-04-24T07:40:47;1.83;;;1.30;;
6523;SDS011;3295;38.928;-77.052;2023-04-24T07:43:16;2.70;;;1.40;;
6523;SDS011;3295;38.928;-77.052;2023-04-24T07:45:43;1.63;;;1.27;;
6523;SDS011;3295;38.928;-77.052;2023-04-24T07:48:10;1.53;;;1.20;;
6523;SDS011;3295;38.928;-77.052;2023-04-24T07:50:40;1.30;;;1.20;;
6523;SDS011;3295;38.928;-77.052;2023-04-24T07:53:07;1.33;;;1.23;;
6523;SDS011;3295;38.928;-77.052;2023-04-24T07:55:34;1.30;;;1.20;;
6523;SDS011;3295;38.928;-77.052;2023-04-24T07:58:02;1.23;;;1.13;;
6523;SDS011;3295;38.928;-77.052;2023-04-24T08:00:31;1.30;;;1.20;;
6523;SDS011;3295;38.928;-77.052;2023-04-24T08:02:58;1.90;;;1.30;;
6523;SDS011;3295;38.928;-77.052;2023-04-24T08:05:25;1.47;;;1.37;;
6523;SDS011;3295;38.928;-77.052;2023-04-24T08:07:53;1.60;;;1.20;;
6523;SDS011;3295;38.928;-77.052;2023-04-24T08:10:21;1.30;;;1.13;;
6523;SDS011;3295;38.928;-77.052;2023-04-24T08:12:48;1.60;;;1.37;;
6523;SDS011;3295;38.928;-77.052;2023-04-24T08:15:15;1.20;;;1.10;;
6523;SDS011;3295;38.928;-77.052;2023-04-24T08:17:44;1.30;;;1.20;;
6523;SDS011;3295;38.928;-77.052;2023-04-24T08:20:11;1.93;;;1.40;;
6523;SDS011;3295;38.928;-77.052;2023-04-24T08:22:40;1.70;;;1.30;;
6523;SDS011;3295;38.928;-77.052;2023-04-24T08:25:07;1.40;;;1.30;;
6523;SDS011;3295;38.928;-77.052;2023-04-24T08:27:35;1.43;;;1.27;;
6523;SDS011;3295;38.928;-77.052;2023-04-24T08:30:04;1.50;;;1.40;;
6523;SDS011;3295;38.928;-77.052;2023-04-24T08:32:32;1.33;;;1.20;;
6523;SDS011;3295;38.928;-77.052;2023-04-24T08:35:01;1.30;;;1.20;;
6523;SDS011;3295;38.928;-77.052;2023-04-24T08:37:28;3.57;;;1.23;;
6523;SDS011;3295;38.928;-77.052;2023-04-24T08:39:55;1.40;;;1.30;;
6523;SDS011;3295;38.928;-77.052;2023-04-24T08:42:23;1.83;;;1.40;;
6523;SDS011;3295;38.928;-77.052;2023-04-24T08:44:50;1.53;;;1.20;;
6523;SDS011;3295;38.928;-77.052;2023-04-24T08:47:17;1.20;;;1.10;;
6523;SDS011;3295;38.928;-77.052;2023-04-24T08:49:44;1.50;;;1.40;;
6523;SDS011;3295;38.928;-77.052;2023-04-24T08:52:13;1.87;;;1.40;;
6523;SDS011;3295;38.928;-77.052;2023-04-24T08:54:41;1.23;;;1.13;;
6523;SDS011;3295;38.928;-77.052;2023-04-24T08:57:08;1.50;;;1.40;;
6523;SDS011;3295;38.928;-77.052;2023-04-24T08:59:36;1.37;;;1.27;;
6523;SDS011;3295;38.928;-77.052;2023-04-24T09:02:04;1.50;;;1.20;;
6523;SDS011;3295;38.928;-77.052;2023-04-24T09:04:32;2.07;;;1.40;;
6523;SDS011;3295;38.928;-77.052;2023-04-24T09:07:00;2.87;;;1.10;;
6523;SDS011;3295;38.928;-77.052;2023-04-24T09:09:29;2.80;;;1.30;;
6523;SDS011;3295;38.928;-77.052;2023-04-24T09:11:57;1.77;;;1.47;;
6523;SDS011;3295;38.928;-77.052;2023-04-24T09:14:25;2.10;;;1.20;;
6523;SDS011;3295;38.928;-77.052;2023-04-24T09:16:53;1.70;;;1.40;;
6523;SDS011;3295;38.928;-77.052;2023-04-24T09:19:20;1.30;;;1.20;;
6523;SDS011;3295;38.928;-77.052;2023-04-24T09:21:48;1.40;;;1.10;;
6523;SDS011;3295;38.928;-77.052;2023-04-24T09:24:15;2.77;;;1.30;;
6523;SDS011;3295;38.928;-77.052;2023-04-24T09:26:45;1.50;;;1.20;;
6523;SDS011;3295;38.928;-77.052;2023-04-24T09:29:14;1.53;;;1.27;;
6523;SDS011;3295;38.928;-77.052;2023-04-24T09:31:41;1.30;;;1.20;;
6523;SDS011;3295;38.928;-77.052;2023-04-24T09:34:08;1.40;;;1.17;;
6523;SDS011;3295;38.928;-77.052;2023-04-24T09:36:36;1.90;;;1.30;;
6523;SDS011;3295;38.928;-77.052;2023-04-24T09:39:04;1.57;;;1.30;;
6523;SDS011;3295;38.928;-77.052;2023-04-24T09:41:31;1.47;;;1.33;;
6523;SDS011;3295;38.928;-77.052;2023-04-24T09:44:10;2.00;;;1.30;;
6523;SDS011;3295;38.928;-77.052;2023-04-24T09:46:38;1.50;;;1.20;;
6523;SDS011;3295;38.928;-77.052;2023-04-24T09:49:08;1.50;;;1.30;;
6523;SDS011;3295;38.928;-77.052;2023-04-24T09:51:37;1.13;;;1.03;;
6523;SDS011;3295;38.928;-77.052;2023-04-24T09:54:04;1.83;;;1.40;;
6523;SDS011;3295;38.928;-77.052;2023-04-24T09:56:42;2.77;;;1.50;;
6523;SDS011;3295;38.928;-77.052;2023-04-24T09:59:10;2.23;;;1.20;;
6523;SDS011;3295;38.928;-77.052;2023-04-24T10:01:38;1.30;;;1.20;;
6523;SDS011;3295;38.928;-77.052;2023-04-24T10:04:14;1.37;;;1.13;;
6523;SDS011;3295;38.928;-77.052;2023-04-24T10:06:42;1.50;;;1.30;;
6523;SDS011;3295;38.928;-77.052;2023-04-24T10:09:10;1.77;;;1.40;;
6523;SDS011;3295;38.928;-77.052;2023-04-24T10:11:41;1.40;;;1.20;;
6523;SDS011;3295;38.928;-77.052;2023-04-24T10:14:10;1.27;;;1.17;;
6523;SDS011;3295;38.928;-77.052;2023-04-24T10:16:39;1.30;;;1.20;;
6523;SDS011;3295;38.928;-77.052;2023-04-24T10:19:06;2.10;;;1.20;;
6523;SDS011;3295;38.928;-77.052;2023-04-24T10:21:34;1.20;;;1.10;;
6523;SDS011;3295;38.928;-77.052;2023-04-24T10:24:02;1.70;;;1.30;;
6523;SDS011;3295;38.928;-77.052;2023-04-24T10:26:30;1.67;;;1.17;;
6523;SDS011;3295;38.928;-77.052;2023-04-24T10:28:58;3.20;;;1.70;;
6523;SDS011;3295;38.928;-77.052;2023-04-24T10:31:27;1.63;;;1.30;;
6523;SDS011;3295;38.928;-77.052;2023-04-24T10:33:57;1.50;;;1.30;;
6523;SDS011;3295;38.928;-77.052;2023-04-24T10:36:25;1.27;;;1.17;;
6523;SDS011;3295;38.928;-77.052;2023-04-24T10:38:54;1.63;;;1.33;;
6523;SDS011;3295;38.928;-77.052;2023-04-24T10:41:23;1.97;;;1.30;;
6523;SDS011;3295;38.928;-77.052;2023-04-24T10:44:03;3.47;;;1.50;;
6523;SDS011;3295;38.928;-77.052;2023-04-24T10:46:32;2.50;;;1.40;;
6523;SDS011;3295;38.928;-77.052;2023-04-24T10:49:00;1.30;;;1.20;;
6523;SDS011;3295;38.928;-77.052;2023-04-24T10:54:23;1.30;;;1.20;;
6523;SDS011;3295;38.928;-77.052;2023-04-24T10:56:50;1.87;;;1.40;;
6523;SDS011;3295;38.928;-77.052;2023-04-24T10:59:23;1.63;;;1.30;;
6523;SDS011;3295;38.928;-77.052;2023-04-24T11:01:55;1.40;;;1.27;;
6523;SDS011;3295;38.928;-77.052;2023-04-24T11:04:29;1.37;;;1.27;;
6523;SDS011;3295;38.928;-77.052;2023-04-24T11:06:57;1.80;;;1.13;;
6523;SDS011;3295;38.928;-77.052;2023-04-24T11:09:26;1.43;;;1.30;;
6523;SDS011;3295;38.928;-77.052;2023-04-24T11:12:02;1.40;;;1.30;;
6523;SDS011;3295;38.928;-77.052;2023-04-24T11:14:29;2.23;;;1.40;;
6523;SDS011;3295;38.928;-77.052;2023-04-24T11:16:58;1.33;;;1.23;;
6523;SDS011;3295;38.928;-77.052;2023-04-24T11:19:26;1.90;;;1.50;;
6523;SDS011;3295;38.928;-77.052;2023-04-24T11:21:54;1.77;;;1.57;;
6523;SDS011;3295;38.928;-77.052;2023-04-24T11:24:29;2.60;;;1.60;;
6523;SDS011;3295;38.928;-77.052;2023-04-24T11:26:57;1.63;;;1.37;;
6523;SDS011;3295;38.928;-77.052;2023-04-24T11:29:37;1.47;;;1.37;;
6523;SDS011;3295;38.928;-77.052;2023-04-24T11:32:15;3.63;;;1.60;;
6523;SDS011;3295;38.928;-77.052;2023-04-24T11:34:45;2.43;;;1.40;;
6523;SDS011;3295;38.928;-77.052;2023-04-24T11:37:12;1.57;;;1.40;;
6523;SDS011;3295;38.928;-77.052;2023-04-24T11:39:40;2.53;;;1.60;;
6523;SDS011;3295;38.928;-77.052;2023-04-24T11:42:07;2.17;;;1.70;;
6523;SDS011;3295;38.928;-77.052;2023-04-24T11:44:35;3.20;;;1.50;;
6523;SDS011;3295;38.928;-77.052;2023-04-24T11:47:04;3.00;;;1.60;;
6523;SDS011;3295;38.928;-77.052;2023-04-24T11:49:34;1.67;;;1.47;;
6523;SDS011;3295;38.928;-77.052;2023-04-24T11:52:03;1.53;;;1.40;;
6523;SDS011;3295;38.928;-77.052;2023-04-24T11:54:31;2.23;;;1.57;;
6523;SDS011;3295;38.928;-77.052;2023-04-24T11:56:58;1.50;;;1.37;;
6523;SDS011;3295;38.928;-77.052;2023-04-24T11:59:26;2.20;;;1.60;;
6523;SDS011;3295;38.928;-77.052;2023-04-24T12:01:53;1.63;;;1.40;;
6523;SDS011;3295;38.928;-77.052;2023-04-24T12:04:20;2.53;;;1.67;;
6523;SDS011;3295;38.928;-77.052;2023-04-24T12:07:01;2.30;;;1.50;;
6523;SDS011;3295;38.928;-77.052;2023-04-24T12:09:29;1.97;;;1.67;;
6523;SDS011;3295;38.928;-77.052;2023-04-24T12:12:06;1.40;;;1.30;;
6523;SDS011;3295;38.928;-77.052;2023-04-24T12:14:41;1.77;;;1.37;;
6523;SDS011;3295;38.928;-77.052;2023-04-24T12:17:08;1.77;;;1.50;;
6523;SDS011;3295;38.928;-77.052;2023-04-24T12:19:36;1.53;;;1.40;;
6523;SDS011;3295;38.928;-77.052;2023-04-24T12:22:05;1.90;;;1.50;;
6523;SDS011;3295;38.928;-77.052;2023-04-24T12:24:33;1.80;;;1.47;;
6523;SDS011;3295;38.928;-77.052;2023-04-24T12:27:00;1.57;;;1.40;;
6523;SDS011;3295;38.928;-77.052;2023-04-24T12:29:28;1.73;;;1.37;;
6523;SDS011;3295;38.928;-77.052;2023-04-24T12:31:55;2.33;;;1.40;;
6523;SDS011;3295;38.928;-77.052;2023-04-24T12:34:22;2.13;;;1.40;;
6523;SDS011;3295;38.928;-77.052;2023-04-24T12:36:50;2.50;;;1.57;;
6523;SDS011;3295;38.928;-77.052;2023-04-24T12:39:19;1.87;;;1.50;;
6523;SDS011;3295;38.928;-77.052;2023-04-24T12:41:55;1.90;;;1.43;;
6523;SDS011;3295;38.928;-77.052;2023-04-24T12:44:30;1.63;;;1.40;;
6523;SDS011;3295;38.928;-77.052;2023-04-24T12:46:59;2.27;;;1.40;;
6523;SDS011;3295;38.928;-77.052;2023-04-24T12:49:27;1.93;;;1.43;;
6523;SDS011;3295;38.928;-77.052;2023-04-24T12:51:54;1.60;;;1.33;;
6523;SDS011;3295;38.928;-77.052;2023-04-24T12:54:23;2.13;;;1.50;;
6523;SDS011;3295;38.928;-77.052;2023-04-24T12:56:50;2.27;;;1.40;;
6523;SDS011;3295;38.928;-77.052;2023-04-24T12:59:17;1.70;;;1.40;;
6523;SDS011;3295;38.928;-77.052;2023-04-24T13:01:44;1.60;;;1.37;;
6523;SDS011;3295;38.928;-77.052;2023-04-24T13:04:11;1.83;;;1.33;;
6523;SDS011;3295;38.928;-77.052;2023-04-24T13:06:39;2.03;;;1.60;;
6523;SDS011;3295;38.928;-77.052;2023-04-24T13:09:06;1.40;;;1.30;;
6523;SDS011;3295;38.928;-77.052;2023-04-24T13:11:35;2.30;;;1.70;;
6523;SDS011;3295;38.928;-77.052;2023-04-24T13:14:02;1.80;;;1.40;;
6523;SDS011;3295;38.928;-77.052;2023-04-24T13:16:29;1.80;;;1.20;;
6523;SDS011;3295;38.928;-77.052;2023-04-24T13:18:57;1.50;;;1.30;;
6523;SDS011;3295;38.928;-77.052;2023-04-24T13:21:24;2.30;;;1.50;;
6523;SDS011;3295;38.928;-77.052;2023-04-24T13:23:52;2.10;;;1.50;;
6523;SDS011;3295;38.928;-77.052;2023-04-24T13:26:20;2.23;;;1.60;;
6523;SDS011;3295;38.928;-77.052;2023-04-24T13:28:48;2.43;;;1.53;;
6523;SDS011;3295;38.928;-77.052;2023-04-24T13:31:15;1.77;;;1.40;;
6523;SDS011;3295;38.928;-77.052;2023-04-24T13:33:43;2.70;;;2.03;;
6523;SDS011;3295;38.928;-77.052;2023-04-24T13:36:10;2.40;;;1.60;;
6523;SDS011;3295;38.928;-77.052;2023-04-24T13:38:37;1.90;;;1.60;;
6523;SDS011;3295;38.928;-77.052;2023-04-24T13:41:05;1.53;;;1.40;;
6523;SDS011;3295;38.928;-77.052;2023-04-24T13:43:32;1.90;;;1.43;;
6523;SDS011;3295;38.928;-77.052;2023-04-24T13:46:01;1.60;;;1.50;;
6523;SDS011;3295;38.928;-77.052;2023-04-24T13:48:28;1.70;;;1.33;;
6523;SDS011;3295;38.928;-77.052;2023-04-24T13:50:55;2.57;;;1.70;;
6523;SDS011;3295;38.928;-77.052;2023-04-24T13:53:23;2.60;;;1.50;;
6523;SDS011;3295;38.928;-77.052;2023-04-24T13:55:50;1.53;;;1.40;;
6523;SDS011;3295;38.928;-77.052;2023-04-24T13:58:17;1.90;;;1.50;;
6523;SDS011;3295;38.928;-77.052;2023-04-24T14:00:45;1.53;;;1.40;;
6523;SDS011;3295;38.928;-77.052;2023-04-24T14:03:13;2.40;;;1.50;;
6523;SDS011;3295;38.928;-77.052;2023-04-24T14:05:41;1.70;;;1.33;;
6523;SDS011;3295;38.928;-77.052;2023-04-24T14:08:08;1.43;;;1.33;;
6523;SDS011;3295;38.928;-77.052;2023-04-24T14:10:35;3.30;;;1.40;;
6523;SDS011;3295;38.928;-77.052;2023-04-24T14:13:03;1.90;;;1.40;;
6523;SDS011;3295;38.928;-77.052;2023-04-24T14:15:30;2.43;;;1.50;;
6523;SDS011;3295;38.928;-77.052;2023-04-24T14:17:58;1.97;;;1.40;;
6523;SDS011;3295;38.928;-77.052;2023-04-24T14:20:26;1.40;;;1.20;;
6523;SDS011;3295;38.928;-77.052;2023-04-24T14:22:54;1.80;;;1.40;;
6523;SDS011;3295;38.928;-77.052;2023-04-24T14:25:23;1.43;;;1.20;;
6523;SDS011;3295;38.928;-77.052;2023-04-24T14:27:51;1.63;;;1.27;;
6523;SDS011;3295;38.928;-77.052;2023-04-24T14:30:18;1.67;;;1.23;;
6523;SDS011;3295;38.928;-77.052;2023-04-24T14:32:45;1.80;;;1.30;;
6523;SDS011;3295;38.928;-77.052;2023-04-24T14:35:13;1.87;;;1.27;;
6523;SDS011;3295;38.928;-77.052;2023-04-24T14:37:41;1.73;;;1.37;;
6523;SDS011;3295;38.928;-77.052;2023-04-24T14:40:09;1.97;;;1.30;;
6523;SDS011;3295;38.928;-77.052;2023-04-24T14:42:36;1.40;;;1.23;;
6523;SDS011;3295;38.928;-77.052;2023-04-24T14:45:04;1.90;;;1.50;;
6523;SDS011;3295;38.928;-77.052;2023-04-24T14:47:31;1.63;;;1.47;;
6523;SDS011;3295;38.928;-77.052;2023-04-24T14:49:59;1.40;;;1.27;;
6523;SDS011;3295;38.928;-77.052;2023-04-24T14:52:26;3.43;;;1.50;;
6523;SDS011;3295;38.928;-77.052;2023-04-24T14:54:55;1.83;;;1.40;;